sensor_id;sensor_type;location;lat;lon;timestamp;P1;durP1;ratioP1;P2;durP2;ratioP2
19257;SDS011;9763;48.780;9.212;2023-03-29T00:00:24;1.40;;;0.90;;
19257;SDS011;9763;48.780;9.212;2023-03-29T00:03:48;1.40;;;1.00;;
19257;SDS011;9763;48.780;9.212;2023-03-29T00:07:13;1.50;;;0.90;;
19257;SDS011;9763;48.780;9.212;2023-03-29T00:10:36;1.93;;;1.07;;
19257;SDS011;9763;48.780;9.212;2023-03-29T00:14:00;1.27;;;0.90;;
19257;SDS011;9763;48.780;9.212;2023-03-29T00:17:25;1.33;;;0.90;;
19257;SDS011;9763;48.780;9.212;2023-03-29T00:20:52;1.30;;;1.10;;
19257;SDS011;9763;48.780;9.212;2023-03-29T00:24:17;1.40;;;1.03;;
19257;SDS011;9763;48.780;9.212;2023-03-29T00:27:42;1.40;;;1.17;;
19257;SDS011;9763;48.780;9.212;2023-03-29T00:31:06;3.57;;;1.00;;
19257;SDS011;9763;48.780;9.212;2023-03-29T00:34:34;1.40;;;1.10;;
19257;SDS011;9763;48.780;9.212;2023-03-29T00:37:58;1.50;;;1.10;;
19257;SDS011;9763;48.780;9.212;2023-03-29T00:41:22;1.33;;;1.03;;
19257;SDS011;9763;48.780;9.212;2023-03-29T00:45:04;1.50;;;1.17;;
19257;SDS011;9763;48.780;9.212;2023-03-29T00:48:37;1.50;;;1.23;;
19257;SDS011;9763;48.780;9.212;2023-03-29T00:52:03;1.50;;;1.10;;
19257;SDS011;9763;48.780;9.212;2023-03-29T00:55:28;1.30;;;1.03;;
19257;SDS011;9763;48.780;9.212;2023-03-29T00:58:59;1.30;;;1.00;;
19257;SDS011;9763;48.780;9.212;2023-03-29T01:02:27;1.20;;;0.90;;
19257;SDS011;9763;48.780;9.212;2023-03-29T01:05:56;1.50;;;1.20;;
19257;SDS011;9763;48.780;9.212;2023-03-29T01:09:28;1.87;;;1.13;;
19257;SDS011;9763;48.780;9.212;2023-03-29T01:12:57;1.40;;;1.10;;
19257;SDS011;9763;48.780;9.212;2023-03-29T01:16:27;1.50;;;1.03;;
19257;SDS011;9763;48.780;9.212;2023-03-29T01:19:54;2.27;;;1.30;;
19257;SDS011;9763;48.780;9.212;2023-03-29T01:23:35;1.33;;;1.20;;
19257;SDS011;9763;48.780;9.212;2023-03-29T01:27:16;1.50;;;1.20;;
19257;SDS011;9763;48.780;9.212;2023-03-29T01:30:48;1.20;;;0.90;;
19257;SDS011;9763;48.780;9.212;2023-03-29T01:34:21;2.03;;;1.10;;
19257;SDS011;9763;48.780;9.212;2023-03-29T01:37:52;1.80;;;1.20;;
19257;SDS011;9763;48.780;9.212;2023-03-29T01:41:21;1.80;;;1.50;;
19257;SDS011;9763;48.780;9.212;2023-03-29T01:44:57;1.37;;;1.13;;
19257;SDS011;9763;48.780;9.212;2023-03-29T01:48:38;1.63;;;1.13;;
19257;SDS011;9763;48.780;9.212;2023-03-29T01:52:10;1.50;;;1.00;;
19257;SDS011;9763;48.780;9.212;2023-03-29T01:55:41;1.40;;;1.23;;
19257;SDS011;9763;48.780;9.212;2023-03-29T01:59:11;1.40;;;1.10;;
19257;SDS011;9763;48.780;9.212;2023-03-29T02:02:38;1.60;;;1.00;;
19257;SDS011;9763;48.780;9.212;2023-03-29T02:06:07;1.50;;;0.90;;
19257;SDS011;9763;48.780;9.212;2023-03-29T02:09:34;1.43;;;1.13;;
19257;SDS011;9763;48.780;9.212;2023-03-29T02:13:00;1.40;;;0.90;;
19257;SDS011;9763;48.780;9.212;2023-03-29T02:16:27;1.40;;;1.13;;
19257;SDS011;9763;48.780;9.212;2023-03-29T02:20:00;1.40;;;1.20;;
19257;SDS011;9763;48.780;9.212;2023-03-29T02:23:36;1.37;;;1.20;;
19257;SDS011;9763;48.780;9.212;2023-03-29T02:27:06;1.40;;;1.00;;
19257;SDS011;9763;48.780;9.212;2023-03-29T02:30:32;1.40;;;1.30;;
19257;SDS011;9763;48.780;9.212;2023-03-29T02:34:00;1.50;;;1.30;;
19257;SDS011;9763;48.780;9.212;2023-03-29T02:37:28;1.60;;;1.10;;
19257;SDS011;9763;48.780;9.212;2023-03-29T02:40:58;1.70;;;1.00;;
19257;SDS011;9763;48.780;9.212;2023-03-29T02:44:24;2.13;;;1.10;;
19257;SDS011;9763;48.780;9.212;2023-03-29T02:47:51;1.40;;;1.10;;
19257;SDS011;9763;48.780;9.212;2023-03-29T02:51:18;1.60;;;1.10;;
19257;SDS011;9763;48.780;9.212;2023-03-29T02:54:45;1.60;;;1.10;;
19257;SDS011;9763;48.780;9.212;2023-03-29T02:58:13;1.10;;;0.70;;
19257;SDS011;9763;48.780;9.212;2023-03-29T03:01:37;1.40;;;0.97;;
19257;SDS011;9763;48.780;9.212;2023-03-29T03:05:03;1.20;;;0.83;;
19257;SDS011;9763;48.780;9.212;2023-03-29T03:08:28;1.93;;;1.20;;
19257;SDS011;9763;48.780;9.212;2023-03-29T03:11:52;1.90;;;1.37;;
19257;SDS011;9763;48.780;9.212;2023-03-29T03:15:20;1.60;;;1.10;;
19257;SDS011;9763;48.780;9.212;2023-03-29T03:18:43;1.37;;;1.07;;
19257;SDS011;9763;48.780;9.212;2023-03-29T03:22:09;1.40;;;0.90;;
19257;SDS011;9763;48.780;9.212;2023-03-29T03:25:33;2.13;;;1.03;;
19257;SDS011;9763;48.780;9.212;2023-03-29T03:28:57;1.20;;;0.90;;
19257;SDS011;9763;48.780;9.212;2023-03-29T03:32:45;1.43;;;1.10;;
19257;SDS011;9763;48.780;9.212;2023-03-29T03:36:42;1.10;;;0.70;;
19257;SDS011;9763;48.780;9.212;2023-03-29T03:40:08;1.37;;;1.00;;
19257;SDS011;9763;48.780;9.212;2023-03-29T03:43:34;2.13;;;1.30;;
19257;SDS011;9763;48.780;9.212;2023-03-29T03:46:57;1.30;;;0.80;;
19257;SDS011;9763;48.780;9.212;2023-03-29T03:50:23;2.07;;;1.10;;
19257;SDS011;9763;48.780;9.212;2023-03-29T03:53:47;1.50;;;1.00;;
19257;SDS011;9763;48.780;9.212;2023-03-29T03:57:47;1.30;;;1.07;;
19257;SDS011;9763;48.780;9.212;2023-03-29T04:01:12;2.23;;;1.10;;
19257;SDS011;9763;48.780;9.212;2023-03-29T04:04:46;1.47;;;0.93;;
19257;SDS011;9763;48.780;9.212;2023-03-29T04:08:13;1.63;;;0.97;;
19257;SDS011;9763;48.780;9.212;2023-03-29T04:11:56;2.13;;;1.00;;
19257;SDS011;9763;48.780;9.212;2023-03-29T04:15:20;1.33;;;1.10;;
19257;SDS011;9763;48.780;9.212;2023-03-29T04:18:52;1.57;;;1.03;;
19257;SDS011;9763;48.780;9.212;2023-03-29T04:22:17;1.50;;;1.00;;
19257;SDS011;9763;48.780;9.212;2023-03-29T04:25:43;1.50;;;1.10;;
19257;SDS011;9763;48.780;9.212;2023-03-29T04:29:39;5.03;;;1.00;;
19257;SDS011;9763;48.780;9.212;2023-03-29T04:33:16;1.40;;;0.90;;
19257;SDS011;9763;48.780;9.212;2023-03-29T04:36:46;1.20;;;0.83;;
19257;SDS011;9763;48.780;9.212;2023-03-29T04:40:14;1.20;;;0.90;;
19257;SDS011;9763;48.780;9.212;2023-03-29T04:43:51;1.83;;;0.80;;
19257;SDS011;9763;48.780;9.212;2023-03-29T04:47:20;1.20;;;0.80;;
19257;SDS011;9763;48.780;9.212;2023-03-29T04:51:05;1.33;;;0.90;;
19257;SDS011;9763;48.780;9.212;2023-03-29T04:54:29;1.80;;;1.00;;
19257;SDS011;9763;48.780;9.212;2023-03-29T04:58:25;1.20;;;0.80;;
19257;SDS011;9763;48.780;9.212;2023-03-29T05:01:54;1.40;;;0.90;;
19257;SDS011;9763;48.780;9.212;2023-03-29T05:05:18;1.47;;;0.90;;
19257;SDS011;9763;48.780;9.212;2023-03-29T05:08:43;1.40;;;1.00;;
19257;SDS011;9763;48.780;9.212;2023-03-29T05:12:14;1.83;;;1.10;;
19257;SDS011;9763;48.780;9.212;2023-03-29T05:15:46;1.17;;;0.73;;
19257;SDS011;9763;48.780;9.212;2023-03-29T05:19:11;1.30;;;0.90;;
19257;SDS011;9763;48.780;9.212;2023-03-29T05:22:39;1.20;;;0.77;;
19257;SDS011;9763;48.780;9.212;2023-03-29T05:26:08;1.20;;;0.80;;
19257;SDS011;9763;48.780;9.212;2023-03-29T05:29:39;1.93;;;0.90;;
19257;SDS011;9763;48.780;9.212;2023-03-29T05:33:23;1.67;;;0.80;;
19257;SDS011;9763;48.780;9.212;2023-03-29T05:36:48;2.00;;;1.03;;
19257;SDS011;9763;48.780;9.212;2023-03-29T05:40:13;1.20;;;0.80;;
19257;SDS011;9763;48.780;9.212;2023-03-29T05:43:57;1.30;;;0.87;;
19257;SDS011;9763;48.780;9.212;2023-03-29T05:47:22;1.27;;;0.70;;
19257;SDS011;9763;48.780;9.212;2023-03-29T05:50:46;1.70;;;1.10;;
19257;SDS011;9763;48.780;9.212;2023-03-29T05:54:13;1.30;;;0.90;;
19257;SDS011;9763;48.780;9.212;2023-03-29T05:57:37;1.60;;;1.03;;
19257;SDS011;9763;48.780;9.212;2023-03-29T06:01:01;1.63;;;1.10;;
19257;SDS011;9763;48.780;9.212;2023-03-29T06:04:49;1.20;;;1.00;;
19257;SDS011;9763;48.780;9.212;2023-03-29T06:08:17;1.50;;;1.00;;
19257;SDS011;9763;48.780;9.212;2023-03-29T06:11:51;1.30;;;1.00;;
19257;SDS011;9763;48.780;9.212;2023-03-29T06:15:23;1.10;;;0.70;;
19257;SDS011;9763;48.780;9.212;2023-03-29T06:18:58;1.20;;;0.70;;
19257;SDS011;9763;48.780;9.212;2023-03-29T06:22:23;1.40;;;0.97;;
19257;SDS011;9763;48.780;9.212;2023-03-29T06:25:47;1.40;;;1.00;;
19257;SDS011;9763;48.780;9.212;2023-03-29T06:29:14;6.50;;;1.07;;
19257;SDS011;9763;48.780;9.212;2023-03-29T06:32:40;2.70;;;1.00;;
19257;SDS011;9763;48.780;9.212;2023-03-29T06:36:16;1.40;;;1.00;;
19257;SDS011;9763;48.780;9.212;2023-03-29T06:39:41;1.60;;;1.00;;
19257;SDS011;9763;48.780;9.212;2023-03-29T06:43:19;2.60;;;0.93;;
19257;SDS011;9763;48.780;9.212;2023-03-29T06:46:49;2.03;;;1.00;;
19257;SDS011;9763;48.780;9.212;2023-03-29T06:50:14;1.40;;;0.80;;
19257;SDS011;9763;48.780;9.212;2023-03-29T06:54:05;1.30;;;0.90;;
19257;SDS011;9763;48.780;9.212;2023-03-29T06:57:31;1.30;;;0.80;;
19257;SDS011;9763;48.780;9.212;2023-03-29T07:00:58;1.60;;;0.90;;
19257;SDS011;9763;48.780;9.212;2023-03-29T07:04:35;2.03;;;0.83;;
19257;SDS011;9763;48.780;9.212;2023-03-29T07:08:07;1.50;;;0.80;;
19257;SDS011;9763;48.780;9.212;2023-03-29T07:11:56;1.10;;;0.60;;
19257;SDS011;9763;48.780;9.212;2023-03-29T07:15:21;1.20;;;0.70;;
19257;SDS011;9763;48.780;9.212;2023-03-29T07:19:08;1.30;;;0.90;;
19257;SDS011;9763;48.780;9.212;2023-03-29T07:22:45;1.60;;;0.90;;
19257;SDS011;9763;48.780;9.212;2023-03-29T07:26:12;1.30;;;0.70;;
19257;SDS011;9763;48.780;9.212;2023-03-29T07:29:51;1.83;;;0.80;;
19257;SDS011;9763;48.780;9.212;2023-03-29T07:33:15;1.50;;;0.80;;
19257;SDS011;9763;48.780;9.212;2023-03-29T07:36:50;1.73;;;0.93;;
19257;SDS011;9763;48.780;9.212;2023-03-29T07:40:17;1.30;;;0.90;;
19257;SDS011;9763;48.780;9.212;2023-03-29T07:43:50;2.53;;;0.70;;
19257;SDS011;9763;48.780;9.212;2023-03-29T07:47:17;1.70;;;0.80;;
19257;SDS011;9763;48.780;9.212;2023-03-29T07:50:42;3.47;;;0.93;;
19257;SDS011;9763;48.780;9.212;2023-03-29T07:54:06;1.20;;;0.70;;
19257;SDS011;9763;48.780;9.212;2023-03-29T07:57:40;1.10;;;0.60;;
19257;SDS011;9763;48.780;9.212;2023-03-29T08:01:05;5.33;;;1.10;;
19257;SDS011;9763;48.780;9.212;2023-03-29T08:04:51;2.10;;;0.87;;
19257;SDS011;9763;48.780;9.212;2023-03-29T08:08:40;1.90;;;0.93;;
19257;SDS011;9763;48.780;9.212;2023-03-29T08:12:07;1.50;;;0.90;;
19257;SDS011;9763;48.780;9.212;2023-03-29T08:15:33;1.27;;;0.73;;
19257;SDS011;9763;48.780;9.212;2023-03-29T08:18:59;1.37;;;0.83;;
19257;SDS011;9763;48.780;9.212;2023-03-29T08:22:38;1.10;;;0.70;;
19257;SDS011;9763;48.780;9.212;2023-03-29T08:26:22;1.20;;;0.80;;
19257;SDS011;9763;48.780;9.212;2023-03-29T08:29:48;1.20;;;0.80;;
19257;SDS011;9763;48.780;9.212;2023-03-29T08:33:14;1.40;;;0.97;;
19257;SDS011;9763;48.780;9.212;2023-03-29T08:36:42;1.30;;;0.80;;
19257;SDS011;9763;48.780;9.212;2023-03-29T08:40:15;1.10;;;0.70;;
19257;SDS011;9763;48.780;9.212;2023-03-29T08:43:54;1.30;;;0.90;;
19257;SDS011;9763;48.780;9.212;2023-03-29T08:47:57;1.20;;;0.70;;
19257;SDS011;9763;48.780;9.212;2023-03-29T08:51:36;1.57;;;0.70;;
19257;SDS011;9763;48.780;9.212;2023-03-29T08:55:04;1.20;;;0.70;;
19257;SDS011;9763;48.780;9.212;2023-03-29T08:58:57;1.20;;;0.80;;
19257;SDS011;9763;48.780;9.212;2023-03-29T09:02:26;1.20;;;0.70;;
19257;SDS011;9763;48.780;9.212;2023-03-29T09:05:56;1.20;;;0.80;;
19257;SDS011;9763;48.780;9.212;2023-03-29T09:09:28;1.47;;;0.87;;
19257;SDS011;9763;48.780;9.212;2023-03-29T09:13:15;1.17;;;0.77;;
19257;SDS011;9763;48.780;9.212;2023-03-29T09:16:49;2.07;;;0.90;;
19257;SDS011;9763;48.780;9.212;2023-03-29T09:20:26;1.63;;;0.70;;
19257;SDS011;9763;48.780;9.212;2023-03-29T09:24:08;1.30;;;0.80;;
19257;SDS011;9763;48.780;9.212;2023-03-29T09:27:54;1.20;;;0.80;;
19257;SDS011;9763;48.780;9.212;2023-03-29T09:31:37;1.20;;;0.70;;
19257;SDS011;9763;48.780;9.212;2023-03-29T09:35:08;1.20;;;0.70;;
19257;SDS011;9763;48.780;9.212;2023-03-29T09:38:40;1.40;;;0.90;;
19257;SDS011;9763;48.780;9.212;2023-03-29T09:42:07;1.20;;;0.80;;
19257;SDS011;9763;48.780;9.212;2023-03-29T09:45:36;1.60;;;0.80;;
19257;SDS011;9763;48.780;9.212;2023-03-29T09:49:02;1.30;;;0.90;;
19257;SDS011;9763;48.780;9.212;2023-03-29T09:52:31;1.20;;;0.80;;
19257;SDS011;9763;48.780;9.212;2023-03-29T09:56:04;1.87;;;0.80;;
19257;SDS011;9763;48.780;9.212;2023-03-29T09:59:38;1.40;;;0.80;;
19257;SDS011;9763;48.780;9.212;2023-03-29T10:03:03;1.37;;;0.90;;
19257;SDS011;9763;48.780;9.212;2023-03-29T10:06:41;1.30;;;0.80;;
19257;SDS011;9763;48.780;9.212;2023-03-29T10:10:18;2.10;;;1.13;;
19257;SDS011;9763;48.780;9.212;2023-03-29T10:13:45;1.60;;;0.80;;
19257;SDS011;9763;48.780;9.212;2023-03-29T10:17:12;1.20;;;0.80;;
19257;SDS011;9763;48.780;9.212;2023-03-29T10:20:43;1.20;;;0.90;;
19257;SDS011;9763;48.780;9.212;2023-03-29T10:24:08;1.50;;;1.03;;
19257;SDS011;9763;48.780;9.212;2023-03-29T10:27:32;1.97;;;1.00;;
19257;SDS011;9763;48.780;9.212;2023-03-29T10:30:56;1.70;;;1.30;;
19257;SDS011;9763;48.780;9.212;2023-03-29T10:34:24;2.70;;;0.97;;
19257;SDS011;9763;48.780;9.212;2023-03-29T10:37:52;1.30;;;1.00;;
19257;SDS011;9763;48.780;9.212;2023-03-29T10:41:20;1.77;;;1.00;;
19257;SDS011;9763;48.780;9.212;2023-03-29T10:44:51;1.97;;;1.10;;
19257;SDS011;9763;48.780;9.212;2023-03-29T10:48:17;1.30;;;0.90;;
19257;SDS011;9763;48.780;9.212;2023-03-29T10:51:47;1.40;;;1.00;;
19257;SDS011;9763;48.780;9.212;2023-03-29T10:55:13;1.50;;;1.03;;
19257;SDS011;9763;48.780;9.212;2023-03-29T10:58:38;1.80;;;1.10;;
19257;SDS011;9763;48.780;9.212;2023-03-29T11:02:28;1.43;;;1.03;;
19257;SDS011;9763;48.780;9.212;2023-03-29T11:06:18;2.47;;;1.00;;
19257;SDS011;9763;48.780;9.212;2023-03-29T11:09:56;1.30;;;0.80;;
19257;SDS011;9763;48.780;9.212;2023-03-29T11:13:35;2.37;;;0.90;;
19257;SDS011;9763;48.780;9.212;2023-03-29T11:17:09;1.50;;;1.10;;
19257;SDS011;9763;48.780;9.212;2023-03-29T11:20:50;1.67;;;1.17;;
19257;SDS011;9763;48.780;9.212;2023-03-29T11:24:26;1.60;;;1.00;;
19257;SDS011;9763;48.780;9.212;2023-03-29T11:28:09;1.50;;;0.90;;
19257;SDS011;9763;48.780;9.212;2023-03-29T11:31:45;3.60;;;1.20;;
19257;SDS011;9763;48.780;9.212;2023-03-29T11:39:10;2.13;;;1.73;;
19257;SDS011;9763;48.780;9.212;2023-03-29T11:42:42;1.70;;;1.00;;
19257;SDS011;9763;48.780;9.212;2023-03-29T11:46:10;2.80;;;1.13;;
19257;SDS011;9763;48.780;9.212;2023-03-29T11:49:42;1.70;;;0.90;;
19257;SDS011;9763;48.780;9.212;2023-03-29T11:53:12;3.47;;;1.10;;
19257;SDS011;9763;48.780;9.212;2023-03-29T11:56:44;2.30;;;0.90;;
19257;SDS011;9763;48.780;9.212;2023-03-29T12:00:14;1.93;;;1.00;;
19257;SDS011;9763;48.780;9.212;2023-03-29T12:03:44;1.33;;;0.90;;
19257;SDS011;9763;48.780;9.212;2023-03-29T12:07:13;1.60;;;0.90;;
19257;SDS011;9763;48.780;9.212;2023-03-29T12:10:48;1.40;;;0.87;;
19257;SDS011;9763;48.780;9.212;2023-03-29T12:14:24;1.40;;;1.00;;
19257;SDS011;9763;48.780;9.212;2023-03-29T12:18:09;1.40;;;0.90;;
19257;SDS011;9763;48.780;9.212;2023-03-29T12:21:44;1.20;;;0.80;;
19257;SDS011;9763;48.780;9.212;2023-03-29T12:25:14;3.60;;;1.30;;
19257;SDS011;9763;48.780;9.212;2023-03-29T12:28:53;1.97;;;1.30;;
19257;SDS011;9763;48.780;9.212;2023-03-29T12:32:43;1.50;;;0.97;;
19257;SDS011;9763;48.780;9.212;2023-03-29T12:37:04;1.50;;;1.00;;
19257;SDS011;9763;48.780;9.212;2023-03-29T12:41:07;1.30;;;0.90;;
19257;SDS011;9763;48.780;9.212;2023-03-29T12:44:56;3.43;;;1.20;;
19257;SDS011;9763;48.780;9.212;2023-03-29T12:48:26;1.20;;;0.80;;
19257;SDS011;9763;48.780;9.212;2023-03-29T12:51:52;1.90;;;1.10;;
19257;SDS011;9763;48.780;9.212;2023-03-29T12:55:21;1.60;;;1.10;;
19257;SDS011;9763;48.780;9.212;2023-03-29T12:58:53;1.40;;;1.10;;
19257;SDS011;9763;48.780;9.212;2023-03-29T13:02:34;2.23;;;1.03;;
19257;SDS011;9763;48.780;9.212;2023-03-29T13:06:00;1.50;;;1.10;;
19257;SDS011;9763;48.780;9.212;2023-03-29T13:09:27;1.80;;;1.27;;
19257;SDS011;9763;48.780;9.212;2023-03-29T13:12:52;1.67;;;1.03;;
19257;SDS011;9763;48.780;9.212;2023-03-29T13:16:20;1.30;;;0.90;;
19257;SDS011;9763;48.780;9.212;2023-03-29T13:19:57;1.50;;;1.10;;
19257;SDS011;9763;48.780;9.212;2023-03-29T13:23:55;1.30;;;0.90;;
19257;SDS011;9763;48.780;9.212;2023-03-29T13:27:33;1.40;;;0.90;;
19257;SDS011;9763;48.780;9.212;2023-03-29T13:31:10;1.40;;;0.80;;
19257;SDS011;9763;48.780;9.212;2023-03-29T13:34:51;1.40;;;0.80;;
19257;SDS011;9763;48.780;9.212;2023-03-29T13:38:24;1.47;;;1.10;;
19257;SDS011;9763;48.780;9.212;2023-03-29T13:41:52;1.63;;;0.93;;
19257;SDS011;9763;48.780;9.212;2023-03-29T13:45:28;1.80;;;1.10;;
19257;SDS011;9763;48.780;9.212;2023-03-29T13:49:01;1.87;;;0.87;;
19257;SDS011;9763;48.780;9.212;2023-03-29T13:52:40;1.30;;;1.00;;
19257;SDS011;9763;48.780;9.212;2023-03-29T13:56:09;1.40;;;1.00;;
19257;SDS011;9763;48.780;9.212;2023-03-29T13:59:43;1.67;;;1.00;;
19257;SDS011;9763;48.780;9.212;2023-03-29T14:03:13;2.03;;;1.00;;
19257;SDS011;9763;48.780;9.212;2023-03-29T14:06:50;4.20;;;1.50;;
19257;SDS011;9763;48.780;9.212;2023-03-29T14:10:18;1.43;;;0.80;;
19257;SDS011;9763;48.780;9.212;2023-03-29T14:13:44;1.80;;;1.10;;
19257;SDS011;9763;48.780;9.212;2023-03-29T14:17:12;1.37;;;0.90;;
19257;SDS011;9763;48.780;9.212;2023-03-29T14:20:42;1.20;;;0.80;;
19257;SDS011;9763;48.780;9.212;2023-03-29T14:24:09;1.37;;;0.80;;
19257;SDS011;9763;48.780;9.212;2023-03-29T14:27:42;2.10;;;0.90;;
19257;SDS011;9763;48.780;9.212;2023-03-29T14:31:14;1.37;;;0.80;;
19257;SDS011;9763;48.780;9.212;2023-03-29T14:34:40;1.80;;;0.80;;
19257;SDS011;9763;48.780;9.212;2023-03-29T14:38:04;1.40;;;0.80;;
19257;SDS011;9763;48.780;9.212;2023-03-29T14:41:30;1.30;;;0.70;;
19257;SDS011;9763;48.780;9.212;2023-03-29T14:44:57;1.27;;;0.77;;
19257;SDS011;9763;48.780;9.212;2023-03-29T14:48:26;1.20;;;0.70;;
19257;SDS011;9763;48.780;9.212;2023-03-29T14:51:53;1.17;;;0.70;;
19257;SDS011;9763;48.780;9.212;2023-03-29T14:55:18;1.27;;;0.70;;
19257;SDS011;9763;48.780;9.212;2023-03-29T14:58:45;2.17;;;0.73;;
19257;SDS011;9763;48.780;9.212;2023-03-29T15:02:22;1.30;;;0.80;;
19257;SDS011;9763;48.780;9.212;2023-03-29T15:05:49;2.20;;;0.90;;
19257;SDS011;9763;48.780;9.212;2023-03-29T15:09:19;1.10;;;0.63;;
19257;SDS011;9763;48.780;9.212;2023-03-29T15:12:49;2.97;;;0.93;;
19257;SDS011;9763;48.780;9.212;2023-03-29T15:16:17;1.20;;;0.83;;
19257;SDS011;9763;48.780;9.212;2023-03-29T15:19:43;1.20;;;0.80;;
19257;SDS011;9763;48.780;9.212;2023-03-29T15:23:07;1.30;;;0.90;;
19257;SDS011;9763;48.780;9.212;2023-03-29T15:26:42;1.20;;;0.70;;
19257;SDS011;9763;48.780;9.212;2023-03-29T15:30:10;1.40;;;0.90;;
19257;SDS011;9763;48.780;9.212;2023-03-29T15:33:37;1.30;;;0.90;;
19257;SDS011;9763;48.780;9.212;2023-03-29T15:37:02;1.50;;;0.90;;
19257;SDS011;9763;48.780;9.212;2023-03-29T15:40:28;1.50;;;0.80;;
19257;SDS011;9763;48.780;9.212;2023-03-29T15:43:53;1.50;;;0.90;;
19257;SDS011;9763;48.780;9.212;2023-03-29T15:47:18;2.67;;;0.90;;
19257;SDS011;9763;48.780;9.212;2023-03-29T15:50:43;1.30;;;0.73;;
19257;SDS011;9763;48.780;9.212;2023-03-29T15:54:07;1.70;;;0.90;;
19257;SDS011;9763;48.780;9.212;2023-03-29T15:57:31;2.13;;;1.00;;
19257;SDS011;9763;48.780;9.212;2023-03-29T16:00:56;1.40;;;0.87;;
19257;SDS011;9763;48.780;9.212;2023-03-29T16:04:31;1.47;;;0.97;;
19257;SDS011;9763;48.780;9.212;2023-03-29T16:07:56;1.50;;;1.00;;
19257;SDS011;9763;48.780;9.212;2023-03-29T16:11:20;1.63;;;1.00;;
19257;SDS011;9763;48.780;9.212;2023-03-29T16:14:44;1.93;;;1.37;;
19257;SDS011;9763;48.780;9.212;2023-03-29T16:18:08;1.50;;;1.30;;
19257;SDS011;9763;48.780;9.212;2023-03-29T16:21:31;1.83;;;1.07;;
19257;SDS011;9763;48.780;9.212;2023-03-29T16:24:57;2.60;;;1.73;;
19257;SDS011;9763;48.780;9.212;2023-03-29T16:28:20;1.87;;;1.30;;
19257;SDS011;9763;48.780;9.212;2023-03-29T16:31:44;1.90;;;1.30;;
19257;SDS011;9763;48.780;9.212;2023-03-29T16:35:11;1.40;;;1.10;;
19257;SDS011;9763;48.780;9.212;2023-03-29T16:38:42;1.57;;;1.10;;
19257;SDS011;9763;48.780;9.212;2023-03-29T16:42:07;1.40;;;1.00;;
19257;SDS011;9763;48.780;9.212;2023-03-29T16:45:32;1.40;;;1.10;;
19257;SDS011;9763;48.780;9.212;2023-03-29T16:48:56;1.30;;;0.90;;
19257;SDS011;9763;48.780;9.212;2023-03-29T16:52:20;1.87;;;1.40;;
19257;SDS011;9763;48.780;9.212;2023-03-29T16:55:44;2.70;;;2.50;;
19257;SDS011;9763;48.780;9.212;2023-03-29T16:59:10;2.47;;;2.00;;
19257;SDS011;9763;48.780;9.212;2023-03-29T17:02:34;1.80;;;1.47;;
19257;SDS011;9763;48.780;9.212;2023-03-29T17:05:57;1.70;;;1.30;;
19257;SDS011;9763;48.780;9.212;2023-03-29T17:09:21;3.30;;;2.40;;
19257;SDS011;9763;48.780;9.212;2023-03-29T17:12:44;1.60;;;1.07;;
19257;SDS011;9763;48.780;9.212;2023-03-29T17:16:09;1.57;;;1.20;;
19257;SDS011;9763;48.780;9.212;2023-03-29T17:19:33;1.50;;;1.20;;
19257;SDS011;9763;48.780;9.212;2023-03-29T17:22:56;1.27;;;0.97;;
19257;SDS011;9763;48.780;9.212;2023-03-29T17:26:20;2.10;;;1.20;;
19257;SDS011;9763;48.780;9.212;2023-03-29T17:29:43;2.43;;;1.10;;
19257;SDS011;9763;48.780;9.212;2023-03-29T17:33:08;2.30;;;1.10;;
19257;SDS011;9763;48.780;9.212;2023-03-29T17:36:32;1.53;;;1.13;;
19257;SDS011;9763;48.780;9.212;2023-03-29T17:39:58;1.20;;;0.80;;
19257;SDS011;9763;48.780;9.212;2023-03-29T17:43:21;1.47;;;0.90;;
19257;SDS011;9763;48.780;9.212;2023-03-29T17:46:45;1.60;;;0.97;;
19257;SDS011;9763;48.780;9.212;2023-03-29T17:50:11;1.53;;;1.03;;
19257;SDS011;9763;48.780;9.212;2023-03-29T17:53:34;1.67;;;1.13;;
19257;SDS011;9763;48.780;9.212;2023-03-29T17:56:58;1.50;;;1.10;;
19257;SDS011;9763;48.780;9.212;2023-03-29T18:00:21;2.33;;;1.10;;
19257;SDS011;9763;48.780;9.212;2023-03-29T18:03:45;1.60;;;1.00;;
19257;SDS011;9763;48.780;9.212;2023-03-29T18:07:11;1.70;;;1.10;;
19257;SDS011;9763;48.780;9.212;2023-03-29T18:10:35;1.67;;;0.93;;
19257;SDS011;9763;48.780;9.212;2023-03-29T18:14:00;1.80;;;1.40;;
19257;SDS011;9763;48.780;9.212;2023-03-29T18:17:25;2.37;;;1.43;;
19257;SDS011;9763;48.780;9.212;2023-03-29T18:20:49;1.90;;;1.23;;
19257;SDS011;9763;48.780;9.212;2023-03-29T18:24:14;1.80;;;1.10;;
19257;SDS011;9763;48.780;9.212;2023-03-29T18:27:37;2.30;;;1.10;;
19257;SDS011;9763;48.780;9.212;2023-03-29T18:31:01;2.10;;;1.23;;
19257;SDS011;9763;48.780;9.212;2023-03-29T18:34:26;2.40;;;1.10;;
19257;SDS011;9763;48.780;9.212;2023-03-29T18:37:50;2.53;;;1.10;;
19257;SDS011;9763;48.780;9.212;2023-03-29T18:41:15;1.50;;;1.10;;
19257;SDS011;9763;48.780;9.212;2023-03-29T18:44:38;2.30;;;1.40;;
19257;SDS011;9763;48.780;9.212;2023-03-29T18:48:02;1.80;;;1.07;;
19257;SDS011;9763;48.780;9.212;2023-03-29T18:51:28;1.73;;;1.10;;
19257;SDS011;9763;48.780;9.212;2023-03-29T18:54:53;1.67;;;1.57;;
19257;SDS011;9763;48.780;9.212;2023-03-29T18:58:18;1.70;;;1.30;;
19257;SDS011;9763;48.780;9.212;2023-03-29T19:01:44;1.43;;;1.13;;
19257;SDS011;9763;48.780;9.212;2023-03-29T19:05:08;2.27;;;1.60;;
19257;SDS011;9763;48.780;9.212;2023-03-29T19:08:32;1.97;;;0.90;;
19257;SDS011;9763;48.780;9.212;2023-03-29T19:11:57;1.53;;;1.10;;
19257;SDS011;9763;48.780;9.212;2023-03-29T19:15:22;1.83;;;1.13;;
19257;SDS011;9763;48.780;9.212;2023-03-29T19:18:46;2.60;;;1.23;;
19257;SDS011;9763;48.780;9.212;2023-03-29T19:22:09;2.43;;;1.37;;
19257;SDS011;9763;48.780;9.212;2023-03-29T19:25:33;1.60;;;1.10;;
19257;SDS011;9763;48.780;9.212;2023-03-29T19:28:57;3.77;;;1.50;;
19257;SDS011;9763;48.780;9.212;2023-03-29T19:32:22;2.63;;;1.37;;
19257;SDS011;9763;48.780;9.212;2023-03-29T19:35:45;2.20;;;1.20;;
19257;SDS011;9763;48.780;9.212;2023-03-29T19:39:11;1.53;;;1.13;;
19257;SDS011;9763;48.780;9.212;2023-03-29T19:42:34;2.00;;;1.37;;
19257;SDS011;9763;48.780;9.212;2023-03-29T19:46:03;4.50;;;1.30;;
19257;SDS011;9763;48.780;9.212;2023-03-29T19:49:30;3.20;;;1.30;;
19257;SDS011;9763;48.780;9.212;2023-03-29T19:52:56;2.80;;;1.20;;
19257;SDS011;9763;48.780;9.212;2023-03-29T19:56:21;2.40;;;1.40;;
19257;SDS011;9763;48.780;9.212;2023-03-29T19:59:47;2.70;;;1.63;;
19257;SDS011;9763;48.780;9.212;2023-03-29T20:03:11;2.80;;;1.80;;
19257;SDS011;9763;48.780;9.212;2023-03-29T20:06:37;2.30;;;1.73;;
19257;SDS011;9763;48.780;9.212;2023-03-29T20:10:01;3.17;;;2.30;;
19257;SDS011;9763;48.780;9.212;2023-03-29T20:13:25;5.00;;;1.90;;
19257;SDS011;9763;48.780;9.212;2023-03-29T20:16:59;3.70;;;2.30;;
19257;SDS011;9763;48.780;9.212;2023-03-29T20:20:24;4.40;;;2.03;;
19257;SDS011;9763;48.780;9.212;2023-03-29T20:23:48;2.73;;;2.10;;
19257;SDS011;9763;48.780;9.212;2023-03-29T20:27:12;3.30;;;2.40;;
19257;SDS011;9763;48.780;9.212;2023-03-29T20:30:36;2.93;;;1.77;;
19257;SDS011;9763;48.780;9.212;2023-03-29T20:34:00;2.47;;;1.87;;
19257;SDS011;9763;48.780;9.212;2023-03-29T20:37:24;2.23;;;1.90;;
19257;SDS011;9763;48.780;9.212;2023-03-29T20:40:49;3.17;;;2.00;;
19257;SDS011;9763;48.780;9.212;2023-03-29T20:44:12;1.90;;;1.57;;
19257;SDS011;9763;48.780;9.212;2023-03-29T20:47:37;2.00;;;1.57;;
19257;SDS011;9763;48.780;9.212;2023-03-29T20:51:03;3.13;;;1.77;;
19257;SDS011;9763;48.780;9.212;2023-03-29T20:54:31;3.10;;;1.80;;
19257;SDS011;9763;48.780;9.212;2023-03-29T20:57:57;3.80;;;1.60;;
19257;SDS011;9763;48.780;9.212;2023-03-29T21:01:22;2.57;;;1.60;;
19257;SDS011;9763;48.780;9.212;2023-03-29T21:04:47;2.10;;;1.47;;
19257;SDS011;9763;48.780;9.212;2023-03-29T21:08:12;2.27;;;1.80;;
19257;SDS011;9763;48.780;9.212;2023-03-29T21:11:38;2.80;;;1.43;;
19257;SDS011;9763;48.780;9.212;2023-03-29T21:15:03;2.50;;;1.90;;
19257;SDS011;9763;48.780;9.212;2023-03-29T21:18:28;1.80;;;1.30;;
19257;SDS011;9763;48.780;9.212;2023-03-29T21:21:52;2.30;;;1.50;;
19257;SDS011;9763;48.780;9.212;2023-03-29T21:25:15;4.00;;;1.50;;